sensor_id;sensor_type;location;lat;lon;timestamp;P1;durP1;ratioP1;P2;durP2;ratioP2
5414;SDS011;2730;51.512;7.504;2022-09-01T05:04:30;2.75;;;2.53;;
5414;SDS011;2730;51.512;7.504;2022-09-01T05:06:59;2.53;;;2.33;;
5414;SDS011;2730;51.512;7.504;2022-09-01T05:09:27;7.88;;;2.70;;
5414;SDS011;2730;51.512;7.504;2022-09-01T05:11:55;4.55;;;2.38;;
5414;SDS011;2730;51.512;7.504;2022-09-01T05:14:27;6.70;;;3.17;;
5414;SDS011;2730;51.512;7.504;2022-09-01T05:16:55;3.88;;;2.28;;
5414;SDS011;2730;51.512;7.504;2022-09-01T05:19:23;6.88;;;2.60;;
5414;SDS011;2730;51.512;7.504;2022-09-01T05:21:54;8.38;;;2.60;;
5414;SDS011;2730;51.512;7.504;2022-09-01T05:24:22;8.45;;;2.90;;
5414;SDS011;2730;51.512;7.504;2022-09-01T05:26:50;4.60;;;2.60;;
5414;SDS011;2730;51.512;7.504;2022-09-01T05:29:17;3.25;;;2.70;;
5414;SDS011;2730;51.512;7.504;2022-09-01T05:31:45;5.93;;;3.00;;
5414;SDS011;2730;51.512;7.504;2022-09-01T05:34:13;7.57;;;2.67;;
5414;SDS011;2730;51.512;7.504;2022-09-01T05:36:44;5.47;;;2.67;;
5414;SDS011;2730;51.512;7.504;2022-09-01T05:39:16;5.25;;;2.83;;
5414;SDS011;2730;51.512;7.504;2022-09-01T05:41:43;4.18;;;2.40;;
5414;SDS011;2730;51.512;7.504;2022-09-01T05:44:10;5.45;;;2.80;;
5414;SDS011;2730;51.512;7.504;2022-09-01T05:46:40;4.05;;;2.45;;
5414;SDS011;2730;51.512;7.504;2022-09-01T05:49:08;4.50;;;3.72;;
5414;SDS011;2730;51.512;7.504;2022-09-01T05:51:40;6.63;;;2.80;;
5414;SDS011;2730;51.512;7.504;2022-09-01T05:54:08;3.70;;;3.35;;
5414;SDS011;2730;51.512;7.504;2022-09-01T05:56:37;2.78;;;2.58;;
5414;SDS011;2730;51.512;7.504;2022-09-01T05:59:07;5.93;;;3.47;;
5414;SDS011;2730;51.512;7.504;2022-09-01T06:01:34;3.40;;;3.10;;
5414;SDS011;2730;51.512;7.504;2022-09-01T06:04:05;4.55;;;2.70;;
5414;SDS011;2730;51.512;7.504;2022-09-01T06:06:35;8.70;;;3.38;;
5414;SDS011;2730;51.512;7.504;2022-09-01T06:09:05;3.72;;;3.22;;
5414;SDS011;2730;51.512;7.504;2022-09-01T06:11:33;5.10;;;2.90;;
5414;SDS011;2730;51.512;7.504;2022-09-01T06:14:01;3.20;;;2.90;;
5414;SDS011;2730;51.512;7.504;2022-09-01T06:16:30;7.47;;;3.25;;
5414;SDS011;2730;51.512;7.504;2022-09-01T06:18:57;5.82;;;2.85;;
5414;SDS011;2730;51.512;7.504;2022-09-01T06:21:24;3.65;;;2.85;;
5414;SDS011;2730;51.512;7.504;2022-09-01T06:23:53;4.15;;;3.08;;
5414;SDS011;2730;51.512;7.504;2022-09-01T06:26:21;8.85;;;2.63;;
5414;SDS011;2730;51.512;7.504;2022-09-01T06:28:53;3.47;;;3.22;;
5414;SDS011;2730;51.512;7.504;2022-09-01T06:31:22;4.72;;;3.15;;
5414;SDS011;2730;51.512;7.504;2022-09-01T06:33:50;3.70;;;3.25;;
5414;SDS011;2730;51.512;7.504;2022-09-01T06:36:18;3.45;;;2.70;;
5414;SDS011;2730;51.512;7.504;2022-09-01T06:38:47;3.10;;;2.50;;
5414;SDS011;2730;51.512;7.504;2022-09-01T06:41:15;3.70;;;3.00;;
5414;SDS011;2730;51.512;7.504;2022-09-01T06:43:43;4.18;;;3.00;;
5414;SDS011;2730;51.512;7.504;2022-09-01T06:46:11;8.55;;;2.90;;
5414;SDS011;2730;51.512;7.504;2022-09-01T06:48:39;6.97;;;2.67;;
5414;SDS011;2730;51.512;7.504;2022-09-01T06:51:10;5.43;;;2.47;;
5414;SDS011;2730;51.512;7.504;2022-09-01T06:53:38;2.30;;;2.00;;
5414;SDS011;2730;51.512;7.504;2022-09-01T06:56:05;6.63;;;2.60;;
5414;SDS011;2730;51.512;7.504;2022-09-01T06:58:35;5.40;;;1.93;;
5414;SDS011;2730;51.512;7.504;2022-09-01T07:01:04;4.90;;;2.13;;
5414;SDS011;2730;51.512;7.504;2022-09-01T07:03:33;2.23;;;1.90;;
5414;SDS011;2730;51.512;7.504;2022-09-01T07:06:03;8.20;;;2.00;;
5414;SDS011;2730;51.512;7.504;2022-09-01T07:08:31;6.80;;;2.00;;
5414;SDS011;2730;51.512;7.504;2022-09-01T07:11:04;3.57;;;2.33;;
5414;SDS011;2730;51.512;7.504;2022-09-01T07:13:32;3.73;;;2.17;;
5414;SDS011;2730;51.512;7.504;2022-09-01T07:16:00;5.03;;;1.70;;
5414;SDS011;2730;51.512;7.504;2022-09-01T07:18:29;2.90;;;2.10;;
5414;SDS011;2730;51.512;7.504;2022-09-01T07:20:57;3.43;;;2.20;;
5414;SDS011;2730;51.512;7.504;2022-09-01T07:23:25;1.90;;;1.80;;
5414;SDS011;2730;51.512;7.504;2022-09-01T07:25:53;3.33;;;1.87;;
5414;SDS011;2730;51.512;7.504;2022-09-01T07:28:21;6.80;;;2.43;;
5414;SDS011;2730;51.512;7.504;2022-09-01T07:30:50;3.23;;;1.50;;
5414;SDS011;2730;51.512;7.504;2022-09-01T07:33:18;4.57;;;1.77;;
5414;SDS011;2730;51.512;7.504;2022-09-01T07:35:49;6.07;;;1.83;;
5414;SDS011;2730;51.512;7.504;2022-09-01T07:38:19;6.50;;;1.93;;
5414;SDS011;2730;51.512;7.504;2022-09-01T07:40:48;2.23;;;1.73;;
5414;SDS011;2730;51.512;7.504;2022-09-01T07:43:18;3.70;;;1.97;;
5414;SDS011;2730;51.512;7.504;2022-09-01T07:45:49;5.23;;;1.50;;
5414;SDS011;2730;51.512;7.504;2022-09-01T07:48:18;4.30;;;2.03;;
5414;SDS011;2730;51.512;7.504;2022-09-01T07:50:46;2.63;;;1.60;;
5414;SDS011;2730;51.512;7.504;2022-09-01T07:53:16;5.23;;;1.70;;
5414;SDS011;2730;51.512;7.504;2022-09-01T07:55:48;8.20;;;1.90;;
5414;SDS011;2730;51.512;7.504;2022-09-01T07:58:16;6.33;;;1.83;;
5414;SDS011;2730;51.512;7.504;2022-09-01T08:00:44;1.70;;;1.53;;
5414;SDS011;2730;51.512;7.504;2022-09-01T08:03:14;3.63;;;1.70;;
5414;SDS011;2730;51.512;7.504;2022-09-01T08:05:42;1.83;;;1.40;;
5414;SDS011;2730;51.512;7.504;2022-09-01T08:08:08;1.73;;;1.63;;
5414;SDS011;2730;51.512;7.504;2022-09-01T08:10:37;7.70;;;1.97;;
5414;SDS011;2730;51.512;7.504;2022-09-01T08:13:06;3.07;;;1.83;;
5414;SDS011;2730;51.512;7.504;2022-09-01T08:15:34;7.70;;;1.83;;
5414;SDS011;2730;51.512;7.504;2022-09-01T08:18:03;2.43;;;1.57;;
5414;SDS011;2730;51.512;7.504;2022-09-01T08:20:30;6.70;;;2.10;;
5414;SDS011;2730;51.512;7.504;2022-09-01T08:22:59;1.90;;;1.60;;
5414;SDS011;2730;51.512;7.504;2022-09-01T08:25:27;6.50;;;1.80;;
5414;SDS011;2730;51.512;7.504;2022-09-01T08:27:54;5.90;;;1.70;;
5414;SDS011;2730;51.512;7.504;2022-09-01T08:30:23;6.93;;;1.70;;
5414;SDS011;2730;51.512;7.504;2022-09-01T08:32:50;5.80;;;1.90;;
5414;SDS011;2730;51.512;7.504;2022-09-01T08:35:17;3.97;;;2.23;;
5414;SDS011;2730;51.512;7.504;2022-09-01T08:37:43;10.10;;;1.77;;
5414;SDS011;2730;51.512;7.504;2022-09-01T08:40:11;5.00;;;1.90;;
5414;SDS011;2730;51.512;7.504;2022-09-01T08:42:43;3.40;;;1.90;;
5414;SDS011;2730;51.512;7.504;2022-09-01T08:45:19;1.50;;;1.37;;
5414;SDS011;2730;51.512;7.504;2022-09-01T08:47:52;2.80;;;1.30;;
5414;SDS011;2730;51.512;7.504;2022-09-01T08:50:20;14.83;;;1.70;;
5414;SDS011;2730;51.512;7.504;2022-09-01T08:52:49;1.97;;;1.20;;
5414;SDS011;2730;51.512;7.504;2022-09-01T08:55:21;6.30;;;1.23;;
5414;SDS011;2730;51.512;7.504;2022-09-01T08:57:54;3.00;;;1.40;;
5414;SDS011;2730;51.512;7.504;2022-09-01T09:00:24;6.50;;;1.43;;
5414;SDS011;2730;51.512;7.504;2022-09-01T09:02:56;4.40;;;1.50;;
5414;SDS011;2730;51.512;7.504;2022-09-01T09:05:36;4.17;;;1.37;;
5414;SDS011;2730;51.512;7.504;2022-09-01T09:08:23;2.57;;;1.10;;
5414;SDS011;2730;51.512;7.504;2022-09-01T09:11:06;1.70;;;1.27;;
5414;SDS011;2730;51.512;7.504;2022-09-01T09:13:43;5.70;;;1.30;;
5414;SDS011;2730;51.512;7.504;2022-09-01T09:16:24;1.60;;;1.50;;
5414;SDS011;2730;51.512;7.504;2022-09-01T09:18:56;1.80;;;1.40;;
5414;SDS011;2730;51.512;7.504;2022-09-01T09:21:27;1.60;;;1.40;;
5414;SDS011;2730;51.512;7.504;2022-09-01T09:23:59;1.40;;;1.00;;
5414;SDS011;2730;51.512;7.504;2022-09-01T09:26:34;2.63;;;1.50;;
5414;SDS011;2730;51.512;7.504;2022-09-01T09:29:00;4.07;;;1.30;;
5414;SDS011;2730;51.512;7.504;2022-09-01T09:31:30;3.70;;;1.43;;
5414;SDS011;2730;51.512;7.504;2022-09-01T09:33:58;1.87;;;1.17;;
5414;SDS011;2730;51.512;7.504;2022-09-01T09:36:30;2.03;;;1.37;;
5414;SDS011;2730;51.512;7.504;2022-09-01T09:39:10;1.40;;;1.30;;
5414;SDS011;2730;51.512;7.504;2022-09-01T09:41:40;5.33;;;1.60;;
5414;SDS011;2730;51.512;7.504;2022-09-01T09:44:16;2.33;;;1.70;;
5414;SDS011;2730;51.512;7.504;2022-09-01T09:46:49;3.00;;;1.27;;
5414;SDS011;2730;51.512;7.504;2022-09-01T09:49:17;1.70;;;1.40;;
5414;SDS011;2730;51.512;7.504;2022-09-01T09:51:49;4.13;;;1.37;;
5414;SDS011;2730;51.512;7.504;2022-09-01T09:54:19;2.33;;;1.30;;
5414;SDS011;2730;51.512;7.504;2022-09-01T09:56:48;4.40;;;1.50;;
5414;SDS011;2730;51.512;7.504;2022-09-01T09:59:30;4.00;;;1.67;;
5414;SDS011;2730;51.512;7.504;2022-09-01T10:02:12;5.27;;;1.60;;
5414;SDS011;2730;51.512;7.504;2022-09-01T10:04:49;4.60;;;1.67;;
5414;SDS011;2730;51.512;7.504;2022-09-01T10:07:27;2.70;;;1.70;;
5414;SDS011;2730;51.512;7.504;2022-09-01T10:09:57;1.57;;;1.47;;
5414;SDS011;2730;51.512;7.504;2022-09-01T10:12:25;1.70;;;1.27;;
5414;SDS011;2730;51.512;7.504;2022-09-01T10:14:56;2.13;;;1.90;;
5414;SDS011;2730;51.512;7.504;2022-09-01T10:17:29;2.33;;;1.30;;
5414;SDS011;2730;51.512;7.504;2022-09-01T10:20:00;3.80;;;1.50;;
5414;SDS011;2730;51.512;7.504;2022-09-01T10:22:31;2.43;;;1.60;;
5414;SDS011;2730;51.512;7.504;2022-09-01T10:25:00;4.23;;;1.40;;
5414;SDS011;2730;51.512;7.504;2022-09-01T10:27:28;3.00;;;1.50;;
5414;SDS011;2730;51.512;7.504;2022-09-01T10:30:03;1.77;;;1.67;;
5414;SDS011;2730;51.512;7.504;2022-09-01T10:32:36;2.50;;;1.37;;
5414;SDS011;2730;51.512;7.504;2022-09-01T10:35:06;2.77;;;1.43;;
5414;SDS011;2730;51.512;7.504;2022-09-01T10:37:36;6.10;;;1.60;;
5414;SDS011;2730;51.512;7.504;2022-09-01T10:40:11;4.70;;;2.17;;
5414;SDS011;2730;51.512;7.504;2022-09-01T10:42:42;1.50;;;1.40;;
5414;SDS011;2730;51.512;7.504;2022-09-01T10:45:18;2.50;;;1.60;;
5414;SDS011;2730;51.512;7.504;2022-09-01T10:47:57;4.13;;;1.43;;
5414;SDS011;2730;51.512;7.504;2022-09-01T10:53:55;1.83;;;1.20;;
5414;SDS011;2730;51.512;7.504;2022-09-01T10:56:23;3.87;;;1.30;;
5414;SDS011;2730;51.512;7.504;2022-09-01T10:58:59;4.13;;;1.70;;
5414;SDS011;2730;51.512;7.504;2022-09-01T11:07:42;3.57;;;1.70;;
5414;SDS011;2730;51.512;7.504;2022-09-01T11:10:17;2.37;;;1.67;;
5414;SDS011;2730;51.512;7.504;2022-09-01T11:13:06;6.63;;;1.50;;
5414;SDS011;2730;51.512;7.504;2022-09-01T11:15:47;5.13;;;1.63;;
5414;SDS011;2730;51.512;7.504;2022-09-01T11:18:15;7.77;;;1.80;;
5414;SDS011;2730;51.512;7.504;2022-09-01T11:20:51;8.00;;;1.80;;
5414;SDS011;2730;51.512;7.504;2022-09-01T11:23:21;5.57;;;1.50;;
5414;SDS011;2730;51.512;7.504;2022-09-01T11:25:50;2.80;;;1.80;;
5414;SDS011;2730;51.512;7.504;2022-09-01T11:31:14;7.83;;;2.00;;
5414;SDS011;2730;51.512;7.504;2022-09-01T11:33:52;2.30;;;1.50;;
5414;SDS011;2730;51.512;7.504;2022-09-01T11:36:37;6.57;;;1.60;;
5414;SDS011;2730;51.512;7.504;2022-09-01T11:39:21;1.70;;;1.60;;
5414;SDS011;2730;51.512;7.504;2022-09-01T11:41:57;3.83;;;1.47;;
5414;SDS011;2730;51.512;7.504;2022-09-01T11:44:27;1.60;;;1.50;;
5414;SDS011;2730;51.512;7.504;2022-09-01T11:47:00;3.27;;;1.47;;
5414;SDS011;2730;51.512;7.504;2022-09-01T11:49:30;2.23;;;1.47;;
5414;SDS011;2730;51.512;7.504;2022-09-01T11:52:03;3.03;;;1.50;;
5414;SDS011;2730;51.512;7.504;2022-09-01T11:54:36;4.83;;;1.50;;
5414;SDS011;2730;51.512;7.504;2022-09-01T11:57:18;2.50;;;1.40;;
5414;SDS011;2730;51.512;7.504;2022-09-01T11:59:47;1.43;;;1.33;;
5414;SDS011;2730;51.512;7.504;2022-09-01T12:02:18;4.75;;;1.50;;
5414;SDS011;2730;51.512;7.504;2022-09-01T12:04:47;1.30;;;1.20;;
5414;SDS011;2730;51.512;7.504;2022-09-01T12:07:24;2.40;;;1.30;;
5414;SDS011;2730;51.512;7.504;2022-09-01T12:10:03;2.70;;;1.60;;
5414;SDS011;2730;51.512;7.504;2022-09-01T12:12:38;1.63;;;1.50;;
5414;SDS011;2730;51.512;7.504;2022-09-01T12:15:07;1.90;;;1.50;;
5414;SDS011;2730;51.512;7.504;2022-09-01T12:17:41;7.37;;;1.57;;
5414;SDS011;2730;51.512;7.504;2022-09-01T12:20:18;4.30;;;1.23;;
5414;SDS011;2730;51.512;7.504;2022-09-01T12:22:52;2.87;;;1.30;;
5414;SDS011;2730;51.512;7.504;2022-09-01T12:25:20;4.90;;;1.60;;
5414;SDS011;2730;51.512;7.504;2022-09-01T12:27:49;2.60;;;1.17;;
5414;SDS011;2730;51.512;7.504;2022-09-01T12:30:17;2.30;;;1.43;;
5414;SDS011;2730;51.512;7.504;2022-09-01T12:32:45;3.03;;;1.20;;
5414;SDS011;2730;51.512;7.504;2022-09-01T12:35:14;3.53;;;1.20;;
5414;SDS011;2730;51.512;7.504;2022-09-01T12:37:43;1.77;;;1.27;;
5414;SDS011;2730;51.512;7.504;2022-09-01T12:40:22;1.77;;;1.20;;
5414;SDS011;2730;51.512;7.504;2022-09-01T12:42:51;1.57;;;1.47;;
5414;SDS011;2730;51.512;7.504;2022-09-01T12:48:05;5.30;;;1.40;;
5414;SDS011;2730;51.512;7.504;2022-09-01T12:50:34;2.83;;;1.20;;
5414;SDS011;2730;51.512;7.504;2022-09-01T12:53:03;1.57;;;1.20;;
5414;SDS011;2730;51.512;7.504;2022-09-01T12:55:51;2.13;;;1.23;;
5414;SDS011;2730;51.512;7.504;2022-09-01T12:58:25;3.10;;;1.57;;
5414;SDS011;2730;51.512;7.504;2022-09-01T13:00:55;3.33;;;1.50;;
5414;SDS011;2730;51.512;7.504;2022-09-01T13:03:29;1.30;;;1.20;;
5414;SDS011;2730;51.512;7.504;2022-09-01T13:05:57;1.53;;;1.43;;
5414;SDS011;2730;51.512;7.504;2022-09-01T13:08:27;2.20;;;1.23;;
5414;SDS011;2730;51.512;7.504;2022-09-01T13:10:57;5.60;;;1.07;;
5414;SDS011;2730;51.512;7.504;2022-09-01T13:13:27;2.27;;;1.20;;
5414;SDS011;2730;51.512;7.504;2022-09-01T13:15:55;2.40;;;1.40;;
5414;SDS011;2730;51.512;7.504;2022-09-01T13:18:25;3.60;;;1.40;;
5414;SDS011;2730;51.512;7.504;2022-09-01T13:20:54;1.97;;;1.40;;
5414;SDS011;2730;51.512;7.504;2022-09-01T13:23:21;7.17;;;1.37;;
5414;SDS011;2730;51.512;7.504;2022-09-01T13:25:48;2.07;;;1.00;;
5414;SDS011;2730;51.512;7.504;2022-09-01T13:28:17;1.40;;;1.13;;
5414;SDS011;2730;51.512;7.504;2022-09-01T13:30:47;1.50;;;1.20;;
5414;SDS011;2730;51.512;7.504;2022-09-01T13:33:18;2.30;;;1.80;;
5414;SDS011;2730;51.512;7.504;2022-09-01T13:35:45;1.70;;;1.37;;
5414;SDS011;2730;51.512;7.504;2022-09-01T13:38:12;2.33;;;1.30;;
5414;SDS011;2730;51.512;7.504;2022-09-01T13:40:40;2.23;;;1.30;;
5414;SDS011;2730;51.512;7.504;2022-09-01T13:43:07;1.40;;;1.30;;
5414;SDS011;2730;51.512;7.504;2022-09-01T13:45:35;2.50;;;1.20;;
5414;SDS011;2730;51.512;7.504;2022-09-01T13:48:05;2.23;;;1.30;;
5414;SDS011;2730;51.512;7.504;2022-09-01T13:50:32;3.90;;;1.27;;
5414;SDS011;2730;51.512;7.504;2022-09-01T13:52:59;4.03;;;1.40;;
5414;SDS011;2730;51.512;7.504;2022-09-01T13:55:27;3.13;;;1.57;;
5414;SDS011;2730;51.512;7.504;2022-09-01T13:57:55;3.07;;;1.33;;
5414;SDS011;2730;51.512;7.504;2022-09-01T14:00:24;2.50;;;1.57;;
5414;SDS011;2730;51.512;7.504;2022-09-01T14:02:55;1.20;;;1.10;;
5414;SDS011;2730;51.512;7.504;2022-09-01T14:05:27;2.13;;;1.37;;
5414;SDS011;2730;51.512;7.504;2022-09-01T14:07:56;4.70;;;1.60;;
5414;SDS011;2730;51.512;7.504;2022-09-01T14:10:25;2.80;;;1.30;;
5414;SDS011;2730;51.512;7.504;2022-09-01T14:12:53;8.97;;;1.30;;
5414;SDS011;2730;51.512;7.504;2022-09-01T14:15:20;1.63;;;1.30;;
5414;SDS011;2730;51.512;7.504;2022-09-01T14:17:48;2.30;;;1.00;;
5414;SDS011;2730;51.512;7.504;2022-09-01T14:20:18;5.10;;;1.10;;
5414;SDS011;2730;51.512;7.504;2022-09-01T14:22:46;1.20;;;1.10;;
5414;SDS011;2730;51.512;7.504;2022-09-01T14:25:14;6.83;;;1.20;;
5414;SDS011;2730;51.512;7.504;2022-09-01T14:27:42;1.43;;;1.13;;
5414;SDS011;2730;51.512;7.504;2022-09-01T14:30:15;1.60;;;1.10;;
5414;SDS011;2730;51.512;7.504;2022-09-01T14:32:44;7.90;;;1.20;;
5414;SDS011;2730;51.512;7.504;2022-09-01T14:35:12;3.37;;;1.33;;
5414;SDS011;2730;51.512;7.504;2022-09-01T14:37:41;5.73;;;1.20;;
5414;SDS011;2730;51.512;7.504;2022-09-01T14:40:09;4.40;;;1.20;;
5414;SDS011;2730;51.512;7.504;2022-09-01T14:42:39;4.80;;;1.17;;
5414;SDS011;2730;51.512;7.504;2022-09-01T14:45:08;3.00;;;0.97;;
5414;SDS011;2730;51.512;7.504;2022-09-01T14:47:36;1.07;;;0.97;;
5414;SDS011;2730;51.512;7.504;2022-09-01T14:50:03;1.10;;;1.00;;
5414;SDS011;2730;51.512;7.504;2022-09-01T14:52:31;5.33;;;1.20;;
5414;SDS011;2730;51.512;7.504;2022-09-01T14:54:59;2.07;;;1.23;;
5414;SDS011;2730;51.512;7.504;2022-09-01T14:57:26;3.73;;;1.10;;
5414;SDS011;2730;51.512;7.504;2022-09-01T14:59:53;3.13;;;1.10;;
5414;SDS011;2730;51.512;7.504;2022-09-01T15:02:20;1.20;;;1.10;;
5414;SDS011;2730;51.512;7.504;2022-09-01T15:04:49;1.30;;;1.10;;
5414;SDS011;2730;51.512;7.504;2022-09-01T15:07:16;2.20;;;1.00;;
5414;SDS011;2730;51.512;7.504;2022-09-01T15:09:43;2.40;;;1.40;;
5414;SDS011;2730;51.512;7.504;2022-09-01T15:12:11;2.20;;;1.10;;
5414;SDS011;2730;51.512;7.504;2022-09-01T15:14:38;2.40;;;1.10;;
5414;SDS011;2730;51.512;7.504;2022-09-01T15:17:05;6.90;;;1.67;;
5414;SDS011;2730;51.512;7.504;2022-09-01T15:19:32;2.83;;;1.20;;
5414;SDS011;2730;51.512;7.504;2022-09-01T15:21:59;7.97;;;1.63;;
5414;SDS011;2730;51.512;7.504;2022-09-01T15:24:26;2.07;;;1.37;;
5414;SDS011;2730;51.512;7.504;2022-09-01T15:26:53;1.93;;;1.10;;
5414;SDS011;2730;51.512;7.504;2022-09-01T15:29:21;1.70;;;1.20;;
5414;SDS011;2730;51.512;7.504;2022-09-01T15:31:48;2.07;;;1.10;;
5414;SDS011;2730;51.512;7.504;2022-09-01T15:34:15;2.90;;;1.00;;
5414;SDS011;2730;51.512;7.504;2022-09-01T15:36:42;4.90;;;1.10;;
5414;SDS011;2730;51.512;7.504;2022-09-01T15:39:10;6.43;;;1.40;;
5414;SDS011;2730;51.512;7.504;2022-09-01T15:41:37;2.60;;;1.67;;
5414;SDS011;2730;51.512;7.504;2022-09-01T15:44:05;1.20;;;1.10;;
5414;SDS011;2730;51.512;7.504;2022-09-01T15:46:34;1.37;;;0.90;;
5414;SDS011;2730;51.512;7.504;2022-09-01T15:49:06;2.60;;;1.13;;
5414;SDS011;2730;51.512;7.504;2022-09-01T15:51:34;1.40;;;1.27;;
5414;SDS011;2730;51.512;7.504;2022-09-01T15:54:04;4.90;;;1.10;;
5414;SDS011;2730;51.512;7.504;2022-09-01T15:56:32;4.83;;;1.30;;
5414;SDS011;2730;51.512;7.504;2022-09-01T15:59:00;1.60;;;1.07;;
5414;SDS011;2730;51.512;7.504;2022-09-01T16:01:28;3.80;;;1.30;;
5414;SDS011;2730;51.512;7.504;2022-09-01T16:03:58;1.53;;;1.20;;
5414;SDS011;2730;51.512;7.504;2022-09-01T16:06:25;2.80;;;1.30;;
5414;SDS011;2730;51.512;7.504;2022-09-01T16:08:52;6.37;;;1.20;;
5414;SDS011;2730;51.512;7.504;2022-09-01T16:11:19;2.27;;;1.20;;
5414;SDS011;2730;51.512;7.504;2022-09-01T16:13:47;2.27;;;1.40;;
5414;SDS011;2730;51.512;7.504;2022-09-01T16:16:24;2.13;;;1.20;;
5414;SDS011;2730;51.512;7.504;2022-09-01T16:19:02;5.57;;;1.30;;
5414;SDS011;2730;51.512;7.504;2022-09-01T16:21:33;9.40;;;1.43;;
5414;SDS011;2730;51.512;7.504;2022-09-01T16:24:10;2.90;;;1.53;;
5414;SDS011;2730;51.512;7.504;2022-09-01T16:26:38;3.17;;;1.20;;
5414;SDS011;2730;51.512;7.504;2022-09-01T16:29:07;2.70;;;1.00;;
5414;SDS011;2730;51.512;7.504;2022-09-01T16:31:37;1.23;;;1.13;;
5414;SDS011;2730;51.512;7.504;2022-09-01T16:34:10;3.83;;;1.70;;
5414;SDS011;2730;51.512;7.504;2022-09-01T16:36:45;1.10;;;0.97;;
5414;SDS011;2730;51.512;7.504;2022-09-01T16:39:18;1.30;;;1.20;;
5414;SDS011;2730;51.512;7.504;2022-09-01T16:41:54;1.47;;;1.37;;
5414;SDS011;2730;51.512;7.504;2022-09-01T16:44:30;3.20;;;1.17;;
5414;SDS011;2730;51.512;7.504;2022-09-01T16:47:08;3.10;;;1.20;;
5414;SDS011;2730;51.512;7.504;2022-09-01T16:49:53;2.23;;;1.10;;
5414;SDS011;2730;51.512;7.504;2022-09-01T16:52:32;4.53;;;1.33;;
5414;SDS011;2730;51.512;7.504;2022-09-01T16:55:12;1.53;;;1.43;;
5414;SDS011;2730;51.512;7.504;2022-09-01T16:57:48;2.97;;;1.30;;
5414;SDS011;2730;51.512;7.504;2022-09-01T17:00:22;3.13;;;1.13;;
5414;SDS011;2730;51.512;7.504;2022-09-01T17:02:57;2.20;;;1.20;;
5414;SDS011;2730;51.512;7.504;2022-09-01T17:05:35;2.33;;;1.33;;
5414;SDS011;2730;51.512;7.504;2022-09-01T17:08:08;1.70;;;1.40;;
5414;SDS011;2730;51.512;7.504;2022-09-01T17:10:44;1.40;;;1.00;;
5414;SDS011;2730;51.512;7.504;2022-09-01T17:13:15;6.33;;;1.50;;
5414;SDS011;2730;51.512;7.504;2022-09-01T17:15:45;1.30;;;1.20;;
5414;SDS011;2730;51.512;7.504;2022-09-01T17:18:19;2.13;;;1.30;;
5414;SDS011;2730;51.512;7.504;2022-09-01T17:20:58;5.50;;;1.37;;
5414;SDS011;2730;51.512;7.504;2022-09-01T17:23:29;2.80;;;1.37;;
5414;SDS011;2730;51.512;7.504;2022-09-01T17:26:03;2.67;;;1.20;;
5414;SDS011;2730;51.512;7.504;2022-09-01T17:28:33;4.00;;;1.20;;
5414;SDS011;2730;51.512;7.504;2022-09-01T17:31:04;2.43;;;1.10;;
5414;SDS011;2730;51.512;7.504;2022-09-01T17:33:40;3.87;;;1.30;;
5414;SDS011;2730;51.512;7.504;2022-09-01T17:36:23;1.50;;;1.40;;
5414;SDS011;2730;51.512;7.504;2022-09-01T17:38:58;2.70;;;1.40;;
5414;SDS011;2730;51.512;7.504;2022-09-01T17:41:33;4.30;;;1.47;;
5414;SDS011;2730;51.512;7.504;2022-09-01T17:44:06;4.53;;;1.40;;
5414;SDS011;2730;51.512;7.504;2022-09-01T17:46:44;4.03;;;1.60;;
5414;SDS011;2730;51.512;7.504;2022-09-01T17:49:20;2.03;;;1.93;;
5414;SDS011;2730;51.512;7.504;2022-09-01T17:51:52;6.07;;;1.60;;
5414;SDS011;2730;51.512;7.504;2022-09-01T17:54:33;7.63;;;1.30;;
5414;SDS011;2730;51.512;7.504;2022-09-01T17:57:07;5.13;;;1.80;;
5414;SDS011;2730;51.512;7.504;2022-09-01T17:59:40;1.77;;;1.23;;
5414;SDS011;2730;51.512;7.504;2022-09-01T18:02:18;2.53;;;1.43;;
5414;SDS011;2730;51.512;7.504;2022-09-01T18:04:59;3.57;;;1.50;;
5414;SDS011;2730;51.512;7.504;2022-09-01T18:07:41;5.13;;;1.30;;
5414;SDS011;2730;51.512;7.504;2022-09-01T18:10:19;1.37;;;1.27;;
5414;SDS011;2730;51.512;7.504;2022-09-01T18:12:51;2.53;;;1.10;;
5414;SDS011;2730;51.512;7.504;2022-09-01T18:15:25;5.43;;;1.40;;
5414;SDS011;2730;51.512;7.504;2022-09-01T18:17:56;2.70;;;1.20;;
5414;SDS011;2730;51.512;7.504;2022-09-01T18:20:28;1.93;;;1.20;;
5414;SDS011;2730;51.512;7.504;2022-09-01T18:23:02;3.77;;;1.30;;
5414;SDS011;2730;51.512;7.504;2022-09-01T18:25:34;2.80;;;1.40;;
5414;SDS011;2730;51.512;7.504;2022-09-01T18:28:03;2.83;;;1.30;;
5414;SDS011;2730;51.512;7.504;2022-09-01T18:30:31;2.40;;;1.27;;
5414;SDS011;2730;51.512;7.504;2022-09-01T18:33:06;4.27;;;1.57;;
5414;SDS011;2730;51.512;7.504;2022-09-01T18:35:43;2.03;;;1.40;;
5414;SDS011;2730;51.512;7.504;2022-09-01T18:38:23;6.43;;;1.20;;
5414;SDS011;2730;51.512;7.504;2022-09-01T18:41:01;6.00;;;1.50;;
5414;SDS011;2730;51.512;7.504;2022-09-01T18:43:39;6.03;;;1.47;;
5414;SDS011;2730;51.512;7.504;2022-09-01T18:46:12;2.50;;;1.60;;
5414;SDS011;2730;51.512;7.504;2022-09-01T18:48:49;4.97;;;1.90;;
5414;SDS011;2730;51.512;7.504;2022-09-01T18:51:29;1.50;;;1.40;;
5414;SDS011;2730;51.512;7.504;2022-09-01T18:54:08;4.77;;;1.30;;
5414;SDS011;2730;51.512;7.504;2022-09-01T18:56:42;3.40;;;1.50;;
5414;SDS011;2730;51.512;7.504;2022-09-01T18:59:18;7.90;;;4.23;;
5414;SDS011;2730;51.512;7.504;2022-09-01T19:01:58;4.50;;;1.70;;
5414;SDS011;2730;51.512;7.504;2022-09-01T19:04:34;3.00;;;1.70;;
5414;SDS011;2730;51.512;7.504;2022-09-01T19:07:06;9.53;;;1.90;;
5414;SDS011;2730;51.512;7.504;2022-09-01T19:09:43;3.37;;;1.77;;
5414;SDS011;2730;51.512;7.504;2022-09-01T19:12:17;2.40;;;1.77;;
5414;SDS011;2730;51.512;7.504;2022-09-01T19:14:51;1.57;;;1.47;;
5414;SDS011;2730;51.512;7.504;2022-09-01T19:17:34;1.50;;;1.40;;
5414;SDS011;2730;51.512;7.504;2022-09-01T19:20:14;2.53;;;1.30;;
5414;SDS011;2730;51.512;7.504;2022-09-01T19:22:48;4.40;;;1.80;;
5414;SDS011;2730;51.512;7.504;2022-09-01T19:25:21;1.70;;;1.60;;
5414;SDS011;2730;51.512;7.504;2022-09-01T19:28:04;4.23;;;1.13;;
5414;SDS011;2730;51.512;7.504;2022-09-01T19:30:34;8.50;;;1.90;;
5414;SDS011;2730;51.512;7.504;2022-09-01T19:33:09;2.50;;;1.50;;
5414;SDS011;2730;51.512;7.504;2022-09-01T19:35:39;5.33;;;1.53;;
5414;SDS011;2730;51.512;7.504;2022-09-01T19:38:10;9.33;;;1.57;;
5414;SDS011;2730;51.512;7.504;2022-09-01T19:40:43;4.80;;;1.13;;
5414;SDS011;2730;51.512;7.504;2022-09-01T19:43:13;3.10;;;1.40;;
5414;SDS011;2730;51.512;7.504;2022-09-01T19:45:43;1.33;;;1.23;;
5414;SDS011;2730;51.512;7.504;2022-09-01T19:48:20;2.60;;;1.60;;
5414;SDS011;2730;51.512;7.504;2022-09-01T19:50:52;5.23;;;1.30;;
5414;SDS011;2730;51.512;7.504;2022-09-01T19:53:26;1.50;;;1.40;;
5414;SDS011;2730;51.512;7.504;2022-09-01T19:56:06;3.65;;;1.50;;
5414;SDS011;2730;51.512;7.504;2022-09-01T19:58:41;1.40;;;1.30;;
5414;SDS011;2730;51.512;7.504;2022-09-01T20:01:14;1.37;;;1.27;;
5414;SDS011;2730;51.512;7.504;2022-09-01T20:03:45;3.97;;;1.40;;
5414;SDS011;2730;51.512;7.504;2022-09-01T20:06:20;2.03;;;1.20;;
5414;SDS011;2730;51.512;7.504;2022-09-01T20:08:57;2.80;;;1.33;;
5414;SDS011;2730;51.512;7.504;2022-09-01T20:11:34;1.37;;;1.27;;
5414;SDS011;2730;51.512;7.504;2022-09-01T20:14:08;17.20;;;1.77;;
5414;SDS011;2730;51.512;7.504;2022-09-01T20:16:44;2.30;;;1.30;;
5414;SDS011;2730;51.512;7.504;2022-09-01T20:19:14;4.33;;;1.63;;
5414;SDS011;2730;51.512;7.504;2022-09-01T20:21:46;1.90;;;1.30;;
5414;SDS011;2730;51.512;7.504;2022-09-01T20:24:16;4.00;;;1.30;;
5414;SDS011;2730;51.512;7.504;2022-09-01T20:27:02;2.67;;;1.60;;
5414;SDS011;2730;51.512;7.504;2022-09-01T20:29:37;1.77;;;1.67;;
5414;SDS011;2730;51.512;7.504;2022-09-01T20:32:08;2.23;;;1.70;;
5414;SDS011;2730;51.512;7.504;2022-09-01T20:34:38;5.00;;;1.23;;
5414;SDS011;2730;51.512;7.504;2022-09-01T20:37:12;2.37;;;1.23;;
5414;SDS011;2730;51.512;7.504;2022-09-01T20:39:46;4.50;;;1.20;;
5414;SDS011;2730;51.512;7.504;2022-09-01T20:42:31;8.57;;;2.23;;
5414;SDS011;2730;51.512;7.504;2022-09-01T20:45:09;1.97;;;1.77;;
5414;SDS011;2730;51.512;7.504;2022-09-01T20:47:38;1.60;;;1.50;;
5414;SDS011;2730;51.512;7.504;2022-09-01T20:50:08;6.00;;;1.43;;
5414;SDS011;2730;51.512;7.504;2022-09-01T20:52:39;4.50;;;1.60;;
5414;SDS011;2730;51.512;7.504;2022-09-01T20:55:17;3.37;;;1.70;;
5414;SDS011;2730;51.512;7.504;2022-09-01T20:57:52;8.17;;;1.70;;
5414;SDS011;2730;51.512;7.504;2022-09-01T21:00:23;2.80;;;1.57;;